sensor_id;sensor_type;location;lat;lon;timestamp;temperature;humidity
48515;DHT22;34309;47.260;2.796;2023-03-13T00:02:05;21.40;24.30
48515;DHT22;34309;47.260;2.796;2023-03-13T00:04:39;21.30;24.20
48515;DHT22;34309;47.260;2.796;2023-03-13T00:07:13;21.30;24.30
48515;DHT22;34309;47.260;2.796;2023-03-13T00:09:48;21.30;24.60
48515;DHT22;34309;47.260;2.796;2023-03-13T00:12:22;21.30;24.50
48515;DHT22;34309;47.260;2.796;2023-03-13T00:14:55;21.30;24.50
48515;DHT22;34309;47.260;2.796;2023-03-13T00:17:29;21.30;24.70
48515;DHT22;34309;47.260;2.796;2023-03-13T00:20:05;21.30;24.70
48515;DHT22;34309;47.260;2.796;2023-03-13T00:22:40;21.30;24.80
48515;DHT22;34309;47.260;2.796;2023-03-13T00:25:15;21.20;24.70
48515;DHT22;34309;47.260;2.796;2023-03-13T00:27:49;21.20;24.70
48515;DHT22;34309;47.260;2.796;2023-03-13T00:30:22;21.20;24.70
48515;DHT22;34309;47.260;2.796;2023-03-13T00:32:56;21.20;24.70
48515;DHT22;34309;47.260;2.796;2023-03-13T00:35:30;21.20;24.80
48515;DHT22;34309;47.260;2.796;2023-03-13T00:38:03;21.20;24.80
48515;DHT22;34309;47.260;2.796;2023-03-13T00:40:38;21.20;24.80
48515;DHT22;34309;47.260;2.796;2023-03-13T00:43:12;21.20;24.80
48515;DHT22;34309;47.260;2.796;2023-03-13T00:45:46;21.20;24.80
48515;DHT22;34309;47.260;2.796;2023-03-13T00:48:20;21.20;24.80
48515;DHT22;34309;47.260;2.796;2023-03-13T00:50:56;21.20;24.80
48515;DHT22;34309;47.260;2.796;2023-03-13T00:53:30;21.20;25.00
48515;DHT22;34309;47.260;2.796;2023-03-13T00:56:07;21.20;24.90
48515;DHT22;34309;47.260;2.796;2023-03-13T00:58:42;21.20;24.80
48515;DHT22;34309;47.260;2.796;2023-03-13T01:01:18;21.20;24.90
48515;DHT22;34309;47.260;2.796;2023-03-13T01:03:53;21.20;25.00
48515;DHT22;34309;47.260;2.796;2023-03-13T01:06:30;21.10;24.80
48515;DHT22;34309;47.260;2.796;2023-03-13T01:09:05;21.10;24.80
48515;DHT22;34309;47.260;2.796;2023-03-13T01:11:42;21.10;25.00
48515;DHT22;34309;47.260;2.796;2023-03-13T01:14:17;21.10;24.90
48515;DHT22;34309;47.260;2.796;2023-03-13T01:16:51;21.10;25.00
48515;DHT22;34309;47.260;2.796;2023-03-13T01:19:25;21.10;25.00
48515;DHT22;34309;47.260;2.796;2023-03-13T01:21:59;21.10;25.00
48515;DHT22;34309;47.260;2.796;2023-03-13T01:24:32;21.10;25.10
48515;DHT22;34309;47.260;2.796;2023-03-13T01:27:08;21.10;25.10
48515;DHT22;34309;47.260;2.796;2023-03-13T01:29:41;21.10;25.10
48515;DHT22;34309;47.260;2.796;2023-03-13T01:32:15;21.10;25.10
48515;DHT22;34309;47.260;2.796;2023-03-13T01:34:49;21.10;25.10
48515;DHT22;34309;47.260;2.796;2023-03-13T01:37:22;21.10;25.00
48515;DHT22;34309;47.260;2.796;2023-03-13T01:39:56;21.10;25.20
48515;DHT22;34309;47.260;2.796;2023-03-13T01:42:48;21.10;25.40
48515;DHT22;34309;47.260;2.796;2023-03-13T01:45:53;21.10;25.20
48515;DHT22;34309;47.260;2.796;2023-03-13T01:48:34;21.10;25.10
48515;DHT22;34309;47.260;2.796;2023-03-13T01:51:12;21.10;25.30
48515;DHT22;34309;47.260;2.796;2023-03-13T01:53:49;21.00;25.00
48515;DHT22;34309;47.260;2.796;2023-03-13T01:56:27;21.00;25.10
48515;DHT22;34309;47.260;2.796;2023-03-13T01:59:07;21.10;25.20
48515;DHT22;34309;47.260;2.796;2023-03-13T02:01:43;21.10;25.20
48515;DHT22;34309;47.260;2.796;2023-03-13T02:04:20;21.00;25.10
48515;DHT22;34309;47.260;2.796;2023-03-13T02:06:57;21.00;25.20
48515;DHT22;34309;47.260;2.796;2023-03-13T02:09:33;21.00;25.10
48515;DHT22;34309;47.260;2.796;2023-03-13T02:12:10;21.00;25.10
48515;DHT22;34309;47.260;2.796;2023-03-13T02:14:49;21.00;25.00
48515;DHT22;34309;47.260;2.796;2023-03-13T02:17:23;21.00;25.10
48515;DHT22;34309;47.260;2.796;2023-03-13T02:19:57;21.00;25.30
48515;DHT22;34309;47.260;2.796;2023-03-13T02:22:34;21.00;25.20
48515;DHT22;34309;47.260;2.796;2023-03-13T02:28:00;21.00;25.10
48515;DHT22;34309;47.260;2.796;2023-03-13T02:30:36;21.00;25.20
48515;DHT22;34309;47.260;2.796;2023-03-13T02:33:11;21.00;25.20
48515;DHT22;34309;47.260;2.796;2023-03-13T02:35:46;21.00;25.20
48515;DHT22;34309;47.260;2.796;2023-03-13T02:38:23;21.00;25.30
48515;DHT22;34309;47.260;2.796;2023-03-13T02:40:59;21.00;25.10
48515;DHT22;34309;47.260;2.796;2023-03-13T02:43:36;21.00;25.40
48515;DHT22;34309;47.260;2.796;2023-03-13T02:46:12;21.10;25.20
48515;DHT22;34309;47.260;2.796;2023-03-13T02:48:47;21.10;25.20
48515;DHT22;34309;47.260;2.796;2023-03-13T02:51:24;21.20;25.40
48515;DHT22;34309;47.260;2.796;2023-03-13T02:54:02;21.20;25.00
48515;DHT22;34309;47.260;2.796;2023-03-13T02:56:39;21.30;25.20
48515;DHT22;34309;47.260;2.796;2023-03-13T02:59:15;21.30;25.10
48515;DHT22;34309;47.260;2.796;2023-03-13T03:01:49;21.30;24.90
48515;DHT22;34309;47.260;2.796;2023-03-13T03:04:25;21.40;24.90
48515;DHT22;34309;47.260;2.796;2023-03-13T03:06:59;21.40;24.70
48515;DHT22;34309;47.260;2.796;2023-03-13T03:09:32;21.50;24.80
48515;DHT22;34309;47.260;2.796;2023-03-13T03:12:07;21.50;24.90
48515;DHT22;34309;47.260;2.796;2023-03-13T03:14:42;21.50;24.80
48515;DHT22;34309;47.260;2.796;2023-03-13T03:17:16;21.50;24.70
48515;DHT22;34309;47.260;2.796;2023-03-13T03:19:50;21.60;24.60
48515;DHT22;34309;47.260;2.796;2023-03-13T03:22:23;21.60;24.60
48515;DHT22;34309;47.260;2.796;2023-03-13T03:24:59;21.60;24.50
48515;DHT22;34309;47.260;2.796;2023-03-13T03:27:33;21.60;24.50
48515;DHT22;34309;47.260;2.796;2023-03-13T03:30:10;21.60;24.50
48515;DHT22;34309;47.260;2.796;2023-03-13T03:32:43;21.60;24.50
48515;DHT22;34309;47.260;2.796;2023-03-13T03:35:17;21.70;24.40
48515;DHT22;34309;47.260;2.796;2023-03-13T03:37:51;21.60;24.30
48515;DHT22;34309;47.260;2.796;2023-03-13T03:40:24;21.60;24.40
48515;DHT22;34309;47.260;2.796;2023-03-13T03:42:58;21.60;24.30
48515;DHT22;34309;47.260;2.796;2023-03-13T03:45:33;21.70;24.30
48515;DHT22;34309;47.260;2.796;2023-03-13T03:48:07;21.70;24.30
48515;DHT22;34309;47.260;2.796;2023-03-13T03:50:40;21.70;24.20
48515;DHT22;34309;47.260;2.796;2023-03-13T03:53:14;21.70;24.30
48515;DHT22;34309;47.260;2.796;2023-03-13T03:55:48;21.70;24.10
48515;DHT22;34309;47.260;2.796;2023-03-13T03:58:21;21.70;24.10
48515;DHT22;34309;47.260;2.796;2023-03-13T04:00:57;21.70;24.10
48515;DHT22;34309;47.260;2.796;2023-03-13T04:03:31;21.80;24.20
48515;DHT22;34309;47.260;2.796;2023-03-13T04:06:05;21.70;24.00
48515;DHT22;34309;47.260;2.796;2023-03-13T04:08:40;21.80;24.10
48515;DHT22;34309;47.260;2.796;2023-03-13T04:11:13;21.80;24.10
48515;DHT22;34309;47.260;2.796;2023-03-13T04:13:47;21.80;24.20
48515;DHT22;34309;47.260;2.796;2023-03-13T04:16:22;21.70;24.00
48515;DHT22;34309;47.260;2.796;2023-03-13T04:18:56;21.70;24.10
48515;DHT22;34309;47.260;2.796;2023-03-13T04:21:30;21.70;24.10
48515;DHT22;34309;47.260;2.796;2023-03-13T04:24:05;21.70;24.40
48515;DHT22;34309;47.260;2.796;2023-03-13T04:26:39;21.70;24.20
48515;DHT22;34309;47.260;2.796;2023-03-13T04:29:12;21.70;24.10
48515;DHT22;34309;47.260;2.796;2023-03-13T04:31:47;21.70;24.10
48515;DHT22;34309;47.260;2.796;2023-03-13T04:34:21;21.70;24.10
48515;DHT22;34309;47.260;2.796;2023-03-13T04:36:54;21.70;24.00
48515;DHT22;34309;47.260;2.796;2023-03-13T04:39:28;21.60;24.00
48515;DHT22;34309;47.260;2.796;2023-03-13T04:42:02;21.70;24.10
48515;DHT22;34309;47.260;2.796;2023-03-13T04:44:35;21.60;24.00
48515;DHT22;34309;47.260;2.796;2023-03-13T04:47:11;21.60;24.10
48515;DHT22;34309;47.260;2.796;2023-03-13T04:49:45;21.60;24.10
48515;DHT22;34309;47.260;2.796;2023-03-13T04:52:14;21.60;24.20
48515;DHT22;34309;47.260;2.796;2023-03-13T04:54:48;21.60;24.10
48515;DHT22;34309;47.260;2.796;2023-03-13T04:57:22;21.60;24.10
48515;DHT22;34309;47.260;2.796;2023-03-13T04:59:55;21.50;24.00
48515;DHT22;34309;47.260;2.796;2023-03-13T05:02:30;21.50;23.90
48515;DHT22;34309;47.260;2.796;2023-03-13T05:05:04;21.50;24.10
48515;DHT22;34309;47.260;2.796;2023-03-13T05:07:38;21.50;24.10
48515;DHT22;34309;47.260;2.796;2023-03-13T05:10:12;21.50;24.20
48515;DHT22;34309;47.260;2.796;2023-03-13T05:12:45;21.30;24.20
48515;DHT22;34309;47.260;2.796;2023-03-13T05:15:19;21.40;24.30
48515;DHT22;34309;47.260;2.796;2023-03-13T05:17:54;21.40;24.40
48515;DHT22;34309;47.260;2.796;2023-03-13T05:20:28;21.40;24.40
48515;DHT22;34309;47.260;2.796;2023-03-13T05:23:01;21.30;24.20
48515;DHT22;34309;47.260;2.796;2023-03-13T05:25:35;21.30;24.30
48515;DHT22;34309;47.260;2.796;2023-03-13T05:28:08;21.30;24.20
48515;DHT22;34309;47.260;2.796;2023-03-13T05:30:42;21.30;24.30
48515;DHT22;34309;47.260;2.796;2023-03-13T05:33:17;21.30;24.30
48515;DHT22;34309;47.260;2.796;2023-03-13T05:35:51;21.30;24.20
48515;DHT22;34309;47.260;2.796;2023-03-13T05:38:24;21.30;24.40
48515;DHT22;34309;47.260;2.796;2023-03-13T05:40:58;21.30;24.20
48515;DHT22;34309;47.260;2.796;2023-03-13T05:43:32;21.30;24.30
48515;DHT22;34309;47.260;2.796;2023-03-13T05:46:06;21.30;24.40
48515;DHT22;34309;47.260;2.796;2023-03-13T05:48:41;21.20;24.30
48515;DHT22;34309;47.260;2.796;2023-03-13T05:51:16;21.20;24.50
48515;DHT22;34309;47.260;2.796;2023-03-13T05:53:50;21.20;24.30
48515;DHT22;34309;47.260;2.796;2023-03-13T05:56:24;21.20;24.40
48515;DHT22;34309;47.260;2.796;2023-03-13T05:58:57;21.20;24.30
48515;DHT22;34309;47.260;2.796;2023-03-13T06:01:31;21.20;24.30
48515;DHT22;34309;47.260;2.796;2023-03-13T06:04:05;21.20;24.40
48515;DHT22;34309;47.260;2.796;2023-03-13T06:06:39;21.20;24.40
48515;DHT22;34309;47.260;2.796;2023-03-13T06:09:16;21.10;24.40
48515;DHT22;34309;47.260;2.796;2023-03-13T06:11:49;21.10;24.50
48515;DHT22;34309;47.260;2.796;2023-03-13T06:14:23;21.10;24.50
48515;DHT22;34309;47.260;2.796;2023-03-13T06:16:57;21.10;24.50
48515;DHT22;34309;47.260;2.796;2023-03-13T06:19:32;21.10;24.00
48515;DHT22;34309;47.260;2.796;2023-03-13T06:22:06;21.10;24.40
48515;DHT22;34309;47.260;2.796;2023-03-13T06:24:42;21.10;24.50
48515;DHT22;34309;47.260;2.796;2023-03-13T06:27:18;21.10;24.50
48515;DHT22;34309;47.260;2.796;2023-03-13T06:29:51;21.10;24.60
48515;DHT22;34309;47.260;2.796;2023-03-13T06:32:25;21.10;24.40
48515;DHT22;34309;47.260;2.796;2023-03-13T06:35:01;21.00;24.40
48515;DHT22;34309;47.260;2.796;2023-03-13T06:37:35;21.00;24.30
48515;DHT22;34309;47.260;2.796;2023-03-13T06:40:10;21.00;24.40
48515;DHT22;34309;47.260;2.796;2023-03-13T06:42:44;21.00;24.20
48515;DHT22;34309;47.260;2.796;2023-03-13T06:45:18;21.00;24.30
48515;DHT22;34309;47.260;2.796;2023-03-13T06:47:51;21.00;24.40
48515;DHT22;34309;47.260;2.796;2023-03-13T06:50:26;21.00;24.30
48515;DHT22;34309;47.260;2.796;2023-03-13T06:53:00;21.00;24.30
48515;DHT22;34309;47.260;2.796;2023-03-13T06:55:34;21.00;24.50
48515;DHT22;34309;47.260;2.796;2023-03-13T06:58:08;21.00;24.40
48515;DHT22;34309;47.260;2.796;2023-03-13T07:00:41;21.00;24.40
48515;DHT22;34309;47.260;2.796;2023-03-13T07:03:15;20.90;24.40
48515;DHT22;34309;47.260;2.796;2023-03-13T07:05:54;20.90;24.40
48515;DHT22;34309;47.260;2.796;2023-03-13T07:08:29;20.90;24.30
48515;DHT22;34309;47.260;2.796;2023-03-13T07:11:04;20.90;24.40
48515;DHT22;34309;47.260;2.796;2023-03-13T07:13:38;20.90;24.30
48515;DHT22;34309;47.260;2.796;2023-03-13T07:16:12;20.90;24.20
48515;DHT22;34309;47.260;2.796;2023-03-13T07:18:47;20.90;24.30
48515;DHT22;34309;47.260;2.796;2023-03-13T07:21:22;20.90;24.50
48515;DHT22;34309;47.260;2.796;2023-03-13T07:23:55;20.90;24.30
48515;DHT22;34309;47.260;2.796;2023-03-13T07:26:29;20.90;24.30
48515;DHT22;34309;47.260;2.796;2023-03-13T07:29:03;20.90;24.30
48515;DHT22;34309;47.260;2.796;2023-03-13T07:31:36;20.90;24.30
48515;DHT22;34309;47.260;2.796;2023-03-13T07:34:10;20.90;24.40
48515;DHT22;34309;47.260;2.796;2023-03-13T07:36:45;20.80;24.20
48515;DHT22;34309;47.260;2.796;2023-03-13T07:39:19;20.90;24.40
48515;DHT22;34309;47.260;2.796;2023-03-13T07:41:52;20.80;24.30
48515;DHT22;34309;47.260;2.796;2023-03-13T07:44:26;20.80;24.30
48515;DHT22;34309;47.260;2.796;2023-03-13T07:47:00;20.80;24.40
48515;DHT22;34309;47.260;2.796;2023-03-13T07:49:33;20.80;24.20
48515;DHT22;34309;47.260;2.796;2023-03-13T07:52:13;20.80;24.40
48515;DHT22;34309;47.260;2.796;2023-03-13T07:54:47;20.90;24.40
48515;DHT22;34309;47.260;2.796;2023-03-13T07:57:21;20.90;24.20
48515;DHT22;34309;47.260;2.796;2023-03-13T07:59:55;21.00;24.30
48515;DHT22;34309;47.260;2.796;2023-03-13T08:02:29;21.00;24.20
48515;DHT22;34309;47.260;2.796;2023-03-13T08:05:03;21.10;24.30
48515;DHT22;34309;47.260;2.796;2023-03-13T08:07:38;21.10;24.10
48515;DHT22;34309;47.260;2.796;2023-03-13T08:10:11;21.20;24.80
48515;DHT22;34309;47.260;2.796;2023-03-13T08:12:45;21.20;24.10
48515;DHT22;34309;47.260;2.796;2023-03-13T08:15:18;21.30;24.00
48515;DHT22;34309;47.260;2.796;2023-03-13T08:17:56;21.30;24.10
48515;DHT22;34309;47.260;2.796;2023-03-13T08:20:30;21.30;24.00
48515;DHT22;34309;47.260;2.796;2023-03-13T08:23:05;21.40;24.00
48515;DHT22;34309;47.260;2.796;2023-03-13T08:25:39;21.40;24.00
48515;DHT22;34309;47.260;2.796;2023-03-13T08:28:12;21.40;23.90
48515;DHT22;34309;47.260;2.796;2023-03-13T08:30:46;21.40;23.80
48515;DHT22;34309;47.260;2.796;2023-03-13T08:33:20;21.40;23.80
48515;DHT22;34309;47.260;2.796;2023-03-13T08:35:53;21.40;23.90
48515;DHT22;34309;47.260;2.796;2023-03-13T08:38:29;21.50;24.00
48515;DHT22;34309;47.260;2.796;2023-03-13T08:41:02;21.50;24.00
48515;DHT22;34309;47.260;2.796;2023-03-13T08:43:36;21.50;23.90
48515;DHT22;34309;47.260;2.796;2023-03-13T08:46:10;21.50;23.70
48515;DHT22;34309;47.260;2.796;2023-03-13T08:48:43;21.50;23.90
48515;DHT22;34309;47.260;2.796;2023-03-13T08:51:18;21.50;23.80
48515;DHT22;34309;47.260;2.796;2023-03-13T08:53:54;21.60;23.80
48515;DHT22;34309;47.260;2.796;2023-03-13T08:56:30;21.60;23.80
48515;DHT22;34309;47.260;2.796;2023-03-13T08:59:05;21.60;23.70
48515;DHT22;34309;47.260;2.796;2023-03-13T09:01:38;21.60;23.90
48515;DHT22;34309;47.260;2.796;2023-03-13T09:04:12;21.50;23.70
48515;DHT22;34309;47.260;2.796;2023-03-13T09:06:45;21.60;23.90
48515;DHT22;34309;47.260;2.796;2023-03-13T09:09:20;21.60;24.20
48515;DHT22;34309;47.260;2.796;2023-03-13T09:11:54;21.60;24.00
48515;DHT22;34309;47.260;2.796;2023-03-13T09:14:28;21.60;24.20
48515;DHT22;34309;47.260;2.796;2023-03-13T09:17:02;21.50;23.90
48515;DHT22;34309;47.260;2.796;2023-03-13T09:19:36;21.60;23.90
48515;DHT22;34309;47.260;2.796;2023-03-13T09:22:09;21.60;24.10
48515;DHT22;34309;47.260;2.796;2023-03-13T09:24:44;21.60;24.10
48515;DHT22;34309;47.260;2.796;2023-03-13T09:27:17;21.50;24.10
48515;DHT22;34309;47.260;2.796;2023-03-13T09:29:46;21.50;24.40
48515;DHT22;34309;47.260;2.796;2023-03-13T09:32:20;21.50;24.10
48515;DHT22;34309;47.260;2.796;2023-03-13T09:34:54;21.60;24.30
48515;DHT22;34309;47.260;2.796;2023-03-13T09:37:28;21.50;24.40
48515;DHT22;34309;47.260;2.796;2023-03-13T09:40:04;21.50;24.40
48515;DHT22;34309;47.260;2.796;2023-03-13T09:42:45;21.50;24.40
48515;DHT22;34309;47.260;2.796;2023-03-13T09:45:26;21.50;24.70
48515;DHT22;34309;47.260;2.796;2023-03-13T09:48:05;21.50;24.70
48515;DHT22;34309;47.260;2.796;2023-03-13T09:50:43;21.50;25.00
48515;DHT22;34309;47.260;2.796;2023-03-13T09:53:26;21.50;25.20
48515;DHT22;34309;47.260;2.796;2023-03-13T09:56:12;21.50;25.30
48515;DHT22;34309;47.260;2.796;2023-03-13T09:58:53;21.50;26.30
48515;DHT22;34309;47.260;2.796;2023-03-13T10:01:29;21.50;28.30
48515;DHT22;34309;47.260;2.796;2023-03-13T10:04:17;21.40;29.70
48515;DHT22;34309;47.260;2.796;2023-03-13T10:06:52;21.40;29.90
48515;DHT22;34309;47.260;2.796;2023-03-13T10:09:28;21.30;30.40
48515;DHT22;34309;47.260;2.796;2023-03-13T10:12:12;21.30;31.10
48515;DHT22;34309;47.260;2.796;2023-03-13T10:14:57;21.30;31.40
48515;DHT22;34309;47.260;2.796;2023-03-13T10:17:35;21.30;32.00
48515;DHT22;34309;47.260;2.796;2023-03-13T10:20:21;21.20;32.40
48515;DHT22;34309;47.260;2.796;2023-03-13T10:22:58;21.20;32.60
48515;DHT22;34309;47.260;2.796;2023-03-13T10:25:34;21.10;33.10
48515;DHT22;34309;47.260;2.796;2023-03-13T10:28:12;21.10;33.60
48515;DHT22;34309;47.260;2.796;2023-03-13T10:30:45;21.00;33.40
48515;DHT22;34309;47.260;2.796;2023-03-13T10:33:25;21.00;33.40
48515;DHT22;34309;47.260;2.796;2023-03-13T10:36:06;21.00;33.50
48515;DHT22;34309;47.260;2.796;2023-03-13T10:38:47;21.00;33.10
48515;DHT22;34309;47.260;2.796;2023-03-13T10:41:26;21.00;33.20
48515;DHT22;34309;47.260;2.796;2023-03-13T10:44:05;20.90;33.40
48515;DHT22;34309;47.260;2.796;2023-03-13T10:46:42;20.90;33.90
48515;DHT22;34309;47.260;2.796;2023-03-13T10:49:18;20.90;33.60
48515;DHT22;34309;47.260;2.796;2023-03-13T10:51:54;20.90;34.20
48515;DHT22;34309;47.260;2.796;2023-03-13T10:54:29;20.80;34.00
48515;DHT22;34309;47.260;2.796;2023-03-13T10:57:23;20.80;33.80
48515;DHT22;34309;47.260;2.796;2023-03-13T11:00:03;20.80;34.00
48515;DHT22;34309;47.260;2.796;2023-03-13T11:02:44;20.80;34.20
48515;DHT22;34309;47.260;2.796;2023-03-13T11:05:32;20.80;34.40
48515;DHT22;34309;47.260;2.796;2023-03-13T11:08:20;20.80;34.60
48515;DHT22;34309;47.260;2.796;2023-03-13T11:10:56;20.70;34.70
48515;DHT22;34309;47.260;2.796;2023-03-13T11:13:38;20.70;35.10
48515;DHT22;34309;47.260;2.796;2023-03-13T11:16:19;20.70;35.00
48515;DHT22;34309;47.260;2.796;2023-03-13T11:19:27;20.70;35.00
48515;DHT22;34309;47.260;2.796;2023-03-13T11:22:20;20.60;35.00
48515;DHT22;34309;47.260;2.796;2023-03-13T11:25:12;20.60;34.80
48515;DHT22;34309;47.260;2.796;2023-03-13T11:28:04;20.60;34.90
48515;DHT22;34309;47.260;2.796;2023-03-13T11:30:48;20.60;34.80
48515;DHT22;34309;47.260;2.796;2023-03-13T11:33:28;20.60;34.60
48515;DHT22;34309;47.260;2.796;2023-03-13T11:36:12;20.60;34.60
48515;DHT22;34309;47.260;2.796;2023-03-13T11:38:52;20.60;34.40
48515;DHT22;34309;47.260;2.796;2023-03-13T11:41:41;20.60;34.70
48515;DHT22;34309;47.260;2.796;2023-03-13T11:44:23;20.60;34.30
48515;DHT22;34309;47.260;2.796;2023-03-13T11:50:30;20.50;34.30
48515;DHT22;34309;47.260;2.796;2023-03-13T11:53:35;20.50;34.40
48515;DHT22;34309;47.260;2.796;2023-03-13T11:56:15;20.50;34.50
48515;DHT22;34309;47.260;2.796;2023-03-13T11:59:04;20.50;34.90
48515;DHT22;34309;47.260;2.796;2023-03-13T12:01:43;20.50;34.80
48515;DHT22;34309;47.260;2.796;2023-03-13T12:04:23;20.50;34.90
48515;DHT22;34309;47.260;2.796;2023-03-13T12:07:02;20.50;34.80
48515;DHT22;34309;47.260;2.796;2023-03-13T12:09:41;20.50;35.10
48515;DHT22;34309;47.260;2.796;2023-03-13T12:12:23;20.60;34.90
48515;DHT22;34309;47.260;2.796;2023-03-13T12:15:04;20.60;35.10
48515;DHT22;34309;47.260;2.796;2023-03-13T12:17:42;20.50;34.90
48515;DHT22;34309;47.260;2.796;2023-03-13T12:20:22;20.50;35.20
48515;DHT22;34309;47.260;2.796;2023-03-13T12:23:07;20.50;34.90
48515;DHT22;34309;47.260;2.796;2023-03-13T12:25:45;20.50;34.70
48515;DHT22;34309;47.260;2.796;2023-03-13T12:28:28;20.50;34.80
48515;DHT22;34309;47.260;2.796;2023-03-13T12:31:11;20.50;34.70
48515;DHT22;34309;47.260;2.796;2023-03-13T12:33:52;20.50;34.40
48515;DHT22;34309;47.260;2.796;2023-03-13T12:36:31;20.50;34.40
48515;DHT22;34309;47.260;2.796;2023-03-13T12:39:21;20.50;34.40
48515;DHT22;34309;47.260;2.796;2023-03-13T12:42:09;20.50;34.00
48515;DHT22;34309;47.260;2.796;2023-03-13T12:44:46;20.50;34.10
48515;DHT22;34309;47.260;2.796;2023-03-13T12:47:26;20.40;33.90
48515;DHT22;34309;47.260;2.796;2023-03-13T12:50:21;20.40;34.00
48515;DHT22;34309;47.260;2.796;2023-03-13T12:53:36;20.40;34.40
48515;DHT22;34309;47.260;2.796;2023-03-13T12:56:35;20.40;34.30
48515;DHT22;34309;47.260;2.796;2023-03-13T12:59:18;20.40;34.40
48515;DHT22;34309;47.260;2.796;2023-03-13T13:01:54;20.40;34.70
48515;DHT22;34309;47.260;2.796;2023-03-13T13:04:30;20.40;34.90
48515;DHT22;34309;47.260;2.796;2023-03-13T13:07:06;20.40;34.80
48515;DHT22;34309;47.260;2.796;2023-03-13T13:10:03;20.40;34.90
48515;DHT22;34309;47.260;2.796;2023-03-13T13:13:17;20.40;34.60
48515;DHT22;34309;47.260;2.796;2023-03-13T13:15:59;20.40;34.50
48515;DHT22;34309;47.260;2.796;2023-03-13T13:18:33;20.40;34.60
48515;DHT22;34309;47.260;2.796;2023-03-13T13:21:21;20.40;34.50
48515;DHT22;34309;47.260;2.796;2023-03-13T13:24:38;20.40;34.30
48515;DHT22;34309;47.260;2.796;2023-03-13T13:27:27;20.40;34.20
48515;DHT22;34309;47.260;2.796;2023-03-13T13:30:15;20.40;34.30
48515;DHT22;34309;47.260;2.796;2023-03-13T13:36:27;20.50;34.10
48515;DHT22;34309;47.260;2.796;2023-03-13T13:39:25;20.40;33.90
48515;DHT22;34309;47.260;2.796;2023-03-13T13:42:36;20.40;33.70
48515;DHT22;34309;47.260;2.796;2023-03-13T13:45:27;20.40;33.80
48515;DHT22;34309;47.260;2.796;2023-03-13T13:48:29;20.40;33.70
48515;DHT22;34309;47.260;2.796;2023-03-13T13:51:32;20.50;33.80
48515;DHT22;34309;47.260;2.796;2023-03-13T13:54:30;20.40;33.80
48515;DHT22;34309;47.260;2.796;2023-03-13T13:57:07;20.40;34.00
48515;DHT22;34309;47.260;2.796;2023-03-13T13:59:45;20.40;34.30
48515;DHT22;34309;47.260;2.796;2023-03-13T14:02:23;20.40;34.40
48515;DHT22;34309;47.260;2.796;2023-03-13T14:05:02;20.40;34.20
48515;DHT22;34309;47.260;2.796;2023-03-13T14:07:49;20.40;34.30
48515;DHT22;34309;47.260;2.796;2023-03-13T14:10:39;20.40;34.20
48515;DHT22;34309;47.260;2.796;2023-03-13T14:13:14;20.40;34.40
48515;DHT22;34309;47.260;2.796;2023-03-13T14:15:49;20.40;34.60
48515;DHT22;34309;47.260;2.796;2023-03-13T14:18:26;20.40;35.30
48515;DHT22;34309;47.260;2.796;2023-03-13T14:21:01;20.40;36.00
48515;DHT22;34309;47.260;2.796;2023-03-13T14:23:37;20.40;35.40
48515;DHT22;34309;47.260;2.796;2023-03-13T14:26:15;20.40;35.50
48515;DHT22;34309;47.260;2.796;2023-03-13T14:28:51;20.40;35.60
48515;DHT22;34309;47.260;2.796;2023-03-13T14:31:27;20.40;35.70
48515;DHT22;34309;47.260;2.796;2023-03-13T14:34:04;20.40;35.90
48515;DHT22;34309;47.260;2.796;2023-03-13T14:36:46;20.40;35.70
48515;DHT22;34309;47.260;2.796;2023-03-13T14:39:34;20.40;35.80
48515;DHT22;34309;47.260;2.796;2023-03-13T14:42:11;20.30;35.60
48515;DHT22;34309;47.260;2.796;2023-03-13T14:44:46;20.30;35.80
48515;DHT22;34309;47.260;2.796;2023-03-13T14:47:23;20.30;35.80
48515;DHT22;34309;47.260;2.796;2023-03-13T14:50:02;20.30;36.10
48515;DHT22;34309;47.260;2.796;2023-03-13T14:52:37;20.30;36.40
48515;DHT22;34309;47.260;2.796;2023-03-13T14:55:28;20.30;36.40
48515;DHT22;34309;47.260;2.796;2023-03-13T14:58:05;20.20;36.30
48515;DHT22;34309;47.260;2.796;2023-03-13T15:00:53;20.20;36.50
48515;DHT22;34309;47.260;2.796;2023-03-13T15:03:30;20.20;36.30
48515;DHT22;34309;47.260;2.796;2023-03-13T15:06:16;20.20;36.30
48515;DHT22;34309;47.260;2.796;2023-03-13T15:09:18;20.20;35.90
48515;DHT22;34309;47.260;2.796;2023-03-13T15:11:54;20.20;36.00
48515;DHT22;34309;47.260;2.796;2023-03-13T15:14:33;20.20;36.20
48515;DHT22;34309;47.260;2.796;2023-03-13T15:17:13;20.20;36.20
48515;DHT22;34309;47.260;2.796;2023-03-13T15:19:49;20.20;36.10
48515;DHT22;34309;47.260;2.796;2023-03-13T15:22:30;20.20;36.40
48515;DHT22;34309;47.260;2.796;2023-03-13T15:25:08;20.20;35.80
48515;DHT22;34309;47.260;2.796;2023-03-13T15:27:47;20.20;35.60
48515;DHT22;34309;47.260;2.796;2023-03-13T15:30:21;20.20;35.60
48515;DHT22;34309;47.260;2.796;2023-03-13T15:32:55;20.20;35.50
48515;DHT22;34309;47.260;2.796;2023-03-13T15:35:30;20.20;35.30
48515;DHT22;34309;47.260;2.796;2023-03-13T15:38:12;20.20;35.10
48515;DHT22;34309;47.260;2.796;2023-03-13T15:40:46;20.20;35.10
48515;DHT22;34309;47.260;2.796;2023-03-13T15:43:21;20.20;35.00
48515;DHT22;34309;47.260;2.796;2023-03-13T15:45:55;20.20;34.90
48515;DHT22;34309;47.260;2.796;2023-03-13T15:48:29;20.20;34.70
48515;DHT22;34309;47.260;2.796;2023-03-13T15:51:03;20.20;34.90
48515;DHT22;34309;47.260;2.796;2023-03-13T15:53:40;20.20;34.60
48515;DHT22;34309;47.260;2.796;2023-03-13T15:56:15;20.20;34.40
48515;DHT22;34309;47.260;2.796;2023-03-13T15:58:50;20.20;34.30
48515;DHT22;34309;47.260;2.796;2023-03-13T16:01:23;20.10;34.30
48515;DHT22;34309;47.260;2.796;2023-03-13T16:03:57;20.10;34.20
48515;DHT22;34309;47.260;2.796;2023-03-13T16:06:31;20.10;34.10
48515;DHT22;34309;47.260;2.796;2023-03-13T16:09:07;20.10;34.00
48515;DHT22;34309;47.260;2.796;2023-03-13T16:11:40;20.10;33.80
48515;DHT22;34309;47.260;2.796;2023-03-13T16:14:14;20.10;33.80
48515;DHT22;34309;47.260;2.796;2023-03-13T16:16:47;20.10;33.30
48515;DHT22;34309;47.260;2.796;2023-03-13T16:19:23;20.10;33.20
48515;DHT22;34309;47.260;2.796;2023-03-13T16:21:57;20.10;32.80
48515;DHT22;34309;47.260;2.796;2023-03-13T16:24:32;20.10;32.70
48515;DHT22;34309;47.260;2.796;2023-03-13T16:27:12;20.00;32.50
48515;DHT22;34309;47.260;2.796;2023-03-13T16:29:46;20.00;32.30
48515;DHT22;34309;47.260;2.796;2023-03-13T16:32:20;20.00;32.20
48515;DHT22;34309;47.260;2.796;2023-03-13T16:34:56;20.00;32.00
48515;DHT22;34309;47.260;2.796;2023-03-13T16:37:31;20.00;31.90
48515;DHT22;34309;47.260;2.796;2023-03-13T16:40:14;20.00;31.40
48515;DHT22;34309;47.260;2.796;2023-03-13T16:42:48;20.00;31.30
48515;DHT22;34309;47.260;2.796;2023-03-13T16:45:22;20.00;31.20